sensor_id;sensor_type;location;lat;lon;timestamp;pressure;altitude;pressure_sealevel;temperature;humidity
55576;BME280;41437;45.478;9.116;2023-04-07T00:00:12;99793.28;;;7.96;62.58
55576;BME280;41437;45.478;9.116;2023-04-07T00:03:15;99791.38;;;7.96;63.66
55576;BME280;41437;45.478;9.116;2023-04-07T00:06:18;99783.91;;;8.09;65.24
55576;BME280;41437;45.478;9.116;2023-04-07T00:09:19;99777.84;;;8.06;65.02
55576;BME280;41437;45.478;9.116;2023-04-07T00:12:21;99780.94;;;8.10;65.71
55576;BME280;41437;45.478;9.116;2023-04-07T00:15:22;99784.31;;;8.00;66.81
55576;BME280;41437;45.478;9.116;2023-04-07T00:18:24;99791.03;;;7.93;67.63
55576;BME280;41437;45.478;9.116;2023-04-07T00:21:27;99788.03;;;7.94;68.49
55576;BME280;41437;45.478;9.116;2023-04-07T00:24:29;99783.63;;;7.93;68.64
55576;BME280;41437;45.478;9.116;2023-04-07T00:27:30;99793.44;;;7.89;69.59
55576;BME280;41437;45.478;9.116;2023-04-07T00:30:32;99782.38;;;7.84;71.52
55576;BME280;41437;45.478;9.116;2023-04-07T00:33:34;99780.75;;;7.71;73.99
55576;BME280;41437;45.478;9.116;2023-04-07T00:36:37;99781.41;;;7.78;73.84
55576;BME280;41437;45.478;9.116;2023-04-07T00:39:39;99783.97;;;7.68;74.71
55576;BME280;41437;45.478;9.116;2023-04-07T00:42:40;99785.34;;;7.82;75.76
55576;BME280;41437;45.478;9.116;2023-04-07T00:45:43;99783.84;;;7.75;76.11
55576;BME280;41437;45.478;9.116;2023-04-07T00:48:45;99781.78;;;7.70;76.62
55576;BME280;41437;45.478;9.116;2023-04-07T00:51:48;99773.03;;;7.56;78.05
55576;BME280;41437;45.478;9.116;2023-04-07T00:54:50;99775.53;;;7.58;78.53
55576;BME280;41437;45.478;9.116;2023-04-07T00:57:52;99777.00;;;7.49;80.32
55576;BME280;41437;45.478;9.116;2023-04-07T01:01:00;99761.13;;;7.51;80.07
55576;BME280;41437;45.478;9.116;2023-04-07T01:04:08;99759.22;;;7.51;80.98
55576;BME280;41437;45.478;9.116;2023-04-07T01:07:17;99768.28;;;7.52;80.43
55576;BME280;41437;45.478;9.116;2023-04-07T01:10:29;99767.69;;;7.50;81.11
55576;BME280;41437;45.478;9.116;2023-04-07T01:13:35;99769.34;;;7.51;82.11
55576;BME280;41437;45.478;9.116;2023-04-07T01:16:41;99761.38;;;7.49;82.38
55576;BME280;41437;45.478;9.116;2023-04-07T01:19:47;99760.78;;;7.47;81.97
55576;BME280;41437;45.478;9.116;2023-04-07T01:22:56;99765.16;;;7.48;81.72
55576;BME280;41437;45.478;9.116;2023-04-07T01:26:13;99758.50;;;7.44;82.13
55576;BME280;41437;45.478;9.116;2023-04-07T01:29:33;99760.94;;;7.41;82.16
55576;BME280;41437;45.478;9.116;2023-04-07T01:32:36;99747.59;;;7.21;83.92
55576;BME280;41437;45.478;9.116;2023-04-07T01:35:40;99751.06;;;7.04;84.84
55576;BME280;41437;45.478;9.116;2023-04-07T01:38:44;99745.03;;;7.02;85.90
55576;BME280;41437;45.478;9.116;2023-04-07T01:41:46;99746.56;;;7.10;85.23
55576;BME280;41437;45.478;9.116;2023-04-07T01:44:52;99748.59;;;7.03;85.84
55576;BME280;41437;45.478;9.116;2023-04-07T01:47:54;99759.19;;;6.99;86.91
55576;BME280;41437;45.478;9.116;2023-04-07T01:50:56;99744.81;;;6.80;85.23
55576;BME280;41437;45.478;9.116;2023-04-07T01:54:00;99751.69;;;6.83;86.00
55576;BME280;41437;45.478;9.116;2023-04-07T01:57:02;99744.09;;;6.85;86.48
55576;BME280;41437;45.478;9.116;2023-04-07T02:00:07;99741.47;;;6.90;86.40
55576;BME280;41437;45.478;9.116;2023-04-07T02:03:12;99744.66;;;6.87;86.51
55576;BME280;41437;45.478;9.116;2023-04-07T02:06:22;99757.28;;;6.65;87.40
55576;BME280;41437;45.478;9.116;2023-04-07T02:09:27;99755.41;;;6.53;87.55
55576;BME280;41437;45.478;9.116;2023-04-07T02:12:31;99759.53;;;6.56;88.71
55576;BME280;41437;45.478;9.116;2023-04-07T02:15:35;99756.47;;;6.64;88.65
55576;BME280;41437;45.478;9.116;2023-04-07T02:18:36;99763.72;;;6.59;89.38
55576;BME280;41437;45.478;9.116;2023-04-07T02:21:39;99767.59;;;6.39;89.75
55576;BME280;41437;45.478;9.116;2023-04-07T02:24:41;99755.09;;;6.20;94.92
55576;BME280;41437;45.478;9.116;2023-04-07T02:27:42;99756.53;;;6.34;94.96
55576;BME280;41437;45.478;9.116;2023-04-07T02:30:45;99753.34;;;6.37;94.87
55576;BME280;41437;45.478;9.116;2023-04-07T02:33:47;99745.25;;;6.42;95.65
55576;BME280;41437;45.478;9.116;2023-04-07T02:36:50;99741.09;;;6.51;96.95
55576;BME280;41437;45.478;9.116;2023-04-07T02:39:52;99740.50;;;6.61;97.06
55576;BME280;41437;45.478;9.116;2023-04-07T02:42:55;99745.97;;;6.61;95.95
55576;BME280;41437;45.478;9.116;2023-04-07T02:45:58;99753.84;;;6.69;95.61
55576;BME280;41437;45.478;9.116;2023-04-07T02:48:59;99748.25;;;6.76;94.55
55576;BME280;41437;45.478;9.116;2023-04-07T02:52:01;99750.63;;;6.84;94.39
55576;BME280;41437;45.478;9.116;2023-04-07T02:55:02;99743.59;;;6.76;93.48
55576;BME280;41437;45.478;9.116;2023-04-07T02:58:04;99751.34;;;6.79;93.90
55576;BME280;41437;45.478;9.116;2023-04-07T03:01:07;99742.78;;;6.76;93.67
55576;BME280;41437;45.478;9.116;2023-04-07T03:04:08;99739.78;;;6.77;94.21
55576;BME280;41437;45.478;9.116;2023-04-07T03:07:10;99737.03;;;6.66;94.57
55576;BME280;41437;45.478;9.116;2023-04-07T03:10:12;99728.34;;;6.57;95.21
55576;BME280;41437;45.478;9.116;2023-04-07T03:13:13;99733.50;;;6.53;95.36
55576;BME280;41437;45.478;9.116;2023-04-07T03:16:19;99729.19;;;6.46;97.09
55576;BME280;41437;45.478;9.116;2023-04-07T03:19:21;99730.59;;;6.48;98.48
55576;BME280;41437;45.478;9.116;2023-04-07T03:22:22;99725.03;;;6.55;98.00
55576;BME280;41437;45.478;9.116;2023-04-07T03:25:24;99730.50;;;6.55;97.83
55576;BME280;41437;45.478;9.116;2023-04-07T03:28:26;99735.97;;;6.55;94.84
55576;BME280;41437;45.478;9.116;2023-04-07T03:31:29;99732.41;;;6.54;97.53
55576;BME280;41437;45.478;9.116;2023-04-07T03:34:31;99727.63;;;6.62;96.78
55576;BME280;41437;45.478;9.116;2023-04-07T03:37:32;99728.00;;;6.65;96.98
55576;BME280;41437;45.478;9.116;2023-04-07T03:40:34;99730.53;;;6.67;96.43
55576;BME280;41437;45.478;9.116;2023-04-07T03:43:35;99732.53;;;6.60;96.12
55576;BME280;41437;45.478;9.116;2023-04-07T03:46:38;99733.22;;;6.43;94.76
55576;BME280;41437;45.478;9.116;2023-04-07T03:49:41;99728.78;;;6.07;95.06
55576;BME280;41437;45.478;9.116;2023-04-07T03:52:42;99730.22;;;6.10;97.07
55576;BME280;41437;45.478;9.116;2023-04-07T03:55:44;99712.88;;;6.27;96.62
55576;BME280;41437;45.478;9.116;2023-04-07T03:58:46;99727.28;;;6.23;97.84
55576;BME280;41437;45.478;9.116;2023-04-07T04:01:49;99717.75;;;6.25;97.38
55576;BME280;41437;45.478;9.116;2023-04-07T04:04:51;99716.81;;;6.32;96.61
55576;BME280;41437;45.478;9.116;2023-04-07T04:07:52;99711.69;;;6.35;96.61
55576;BME280;41437;45.478;9.116;2023-04-07T04:10:56;99718.47;;;6.33;97.08
55576;BME280;41437;45.478;9.116;2023-04-07T04:13:58;99720.75;;;6.36;96.67
55576;BME280;41437;45.478;9.116;2023-04-07T04:17:01;99715.50;;;6.34;96.69
55576;BME280;41437;45.478;9.116;2023-04-07T04:20:03;99713.38;;;6.36;97.48
55576;BME280;41437;45.478;9.116;2023-04-07T04:23:05;99713.50;;;6.41;98.23
55576;BME280;41437;45.478;9.116;2023-04-07T04:26:09;99704.66;;;6.39;97.67
55576;BME280;41437;45.478;9.116;2023-04-07T04:29:16;99713.72;;;6.40;97.41
55576;BME280;41437;45.478;9.116;2023-04-07T04:32:19;99711.81;;;6.40;98.20
55576;BME280;41437;45.478;9.116;2023-04-07T04:35:21;99715.97;;;6.43;97.67
55576;BME280;41437;45.478;9.116;2023-04-07T04:38:24;99717.53;;;6.50;97.04
55576;BME280;41437;45.478;9.116;2023-04-07T04:41:25;99724.09;;;6.49;97.45
55576;BME280;41437;45.478;9.116;2023-04-07T04:44:27;99722.53;;;6.53;97.52
55576;BME280;41437;45.478;9.116;2023-04-07T04:47:30;99730.25;;;6.57;97.04
55576;BME280;41437;45.478;9.116;2023-04-07T04:50:32;99725.50;;;6.52;94.84
55576;BME280;41437;45.478;9.116;2023-04-07T04:53:34;99723.38;;;6.54;96.31
55576;BME280;41437;45.478;9.116;2023-04-07T04:56:35;99714.91;;;6.55;96.74
55576;BME280;41437;45.478;9.116;2023-04-07T04:59:37;99713.38;;;6.60;97.24
55576;BME280;41437;45.478;9.116;2023-04-07T05:02:42;99706.22;;;6.59;98.46
55576;BME280;41437;45.478;9.116;2023-04-07T05:05:46;99721.34;;;6.61;99.34
55576;BME280;41437;45.478;9.116;2023-04-07T05:08:48;99709.44;;;6.67;98.21
55576;BME280;41437;45.478;9.116;2023-04-07T05:11:52;99713.75;;;6.75;97.78
55576;BME280;41437;45.478;9.116;2023-04-07T05:14:57;99714.44;;;6.82;97.35
55576;BME280;41437;45.478;9.116;2023-04-07T05:17:59;99710.25;;;6.91;96.81
55576;BME280;41437;45.478;9.116;2023-04-07T05:21:01;99715.63;;;6.98;95.59
55576;BME280;41437;45.478;9.116;2023-04-07T05:24:04;99719.28;;;7.03;95.58
55576;BME280;41437;45.478;9.116;2023-04-07T05:27:05;99717.84;;;7.13;95.65
55576;BME280;41437;45.478;9.116;2023-04-07T05:30:09;99719.13;;;7.22;95.37
55576;BME280;41437;45.478;9.116;2023-04-07T05:33:14;99721.00;;;7.33;95.01
55576;BME280;41437;45.478;9.116;2023-04-07T05:36:16;99720.63;;;7.41;95.04
55576;BME280;41437;45.478;9.116;2023-04-07T05:39:20;99724.34;;;7.35;94.39
55576;BME280;41437;45.478;9.116;2023-04-07T05:42:22;99716.84;;;7.30;94.76
55576;BME280;41437;45.478;9.116;2023-04-07T05:45:23;99718.53;;;7.32;95.41
55576;BME280;41437;45.478;9.116;2023-04-07T05:48:26;99724.13;;;7.25;95.06
55576;BME280;41437;45.478;9.116;2023-04-07T05:51:33;99719.28;;;7.15;93.40
55576;BME280;41437;45.478;9.116;2023-04-07T05:54:34;99709.78;;;7.06;94.35
55576;BME280;41437;45.478;9.116;2023-04-07T05:57:36;99714.75;;;7.09;96.81
55576;BME280;41437;45.478;9.116;2023-04-07T06:00:39;99722.75;;;7.11;97.83
55576;BME280;41437;45.478;9.116;2023-04-07T06:03:43;99723.41;;;7.18;97.85
55576;BME280;41437;45.478;9.116;2023-04-07T06:06:45;99724.84;;;7.32;97.48
55576;BME280;41437;45.478;9.116;2023-04-07T06:09:47;99718.25;;;7.45;97.17
55576;BME280;41437;45.478;9.116;2023-04-07T06:12:48;99717.34;;;7.56;95.93
55576;BME280;41437;45.478;9.116;2023-04-07T06:15:50;99720.84;;;7.80;95.58
55576;BME280;41437;45.478;9.116;2023-04-07T06:18:52;99727.47;;;8.13;90.50
55576;BME280;41437;45.478;9.116;2023-04-07T06:21:54;99737.47;;;8.19;86.17
55576;BME280;41437;45.478;9.116;2023-04-07T06:24:55;99732.53;;;8.21;88.20
55576;BME280;41437;45.478;9.116;2023-04-07T06:27:57;99729.13;;;8.14;89.87
55576;BME280;41437;45.478;9.116;2023-04-07T06:30:59;99737.84;;;9.12;85.38
55576;BME280;41437;45.478;9.116;2023-04-07T06:34:02;99733.59;;;9.70;80.03
55576;BME280;41437;45.478;9.116;2023-04-07T06:37:04;99726.75;;;9.45;81.68
55576;BME280;41437;45.478;9.116;2023-04-07T06:40:07;99727.22;;;9.64;80.98
55576;BME280;41437;45.478;9.116;2023-04-07T06:43:11;99728.84;;;10.41;79.25
55576;BME280;41437;45.478;9.116;2023-04-07T06:46:13;99739.91;;;10.46;77.29
55576;BME280;41437;45.478;9.116;2023-04-07T06:49:15;99733.94;;;10.00;80.51
55576;BME280;41437;45.478;9.116;2023-04-07T06:52:20;99734.75;;;9.74;82.59
55576;BME280;41437;45.478;9.116;2023-04-07T06:55:21;99735.06;;;9.77;84.13
55576;BME280;41437;45.478;9.116;2023-04-07T06:58:23;99736.38;;;10.24;84.76
55576;BME280;41437;45.478;9.116;2023-04-07T07:01:26;99729.56;;;10.31;87.19
55576;BME280;41437;45.478;9.116;2023-04-07T07:04:29;99730.72;;;10.36;88.12
55576;BME280;41437;45.478;9.116;2023-04-07T07:07:30;99738.63;;;10.27;85.71
55576;BME280;41437;45.478;9.116;2023-04-07T07:10:32;99737.00;;;10.31;86.65
55576;BME280;41437;45.478;9.116;2023-04-07T07:13:33;99730.59;;;10.52;84.02
55576;BME280;41437;45.478;9.116;2023-04-07T07:16:35;99730.81;;;10.83;81.61
55576;BME280;41437;45.478;9.116;2023-04-07T07:19:38;99730.91;;;10.93;79.98
55576;BME280;41437;45.478;9.116;2023-04-07T07:22:39;99738.06;;;10.94;78.49
55576;BME280;41437;45.478;9.116;2023-04-07T07:25:41;99731.66;;;11.36;77.47
55576;BME280;41437;45.478;9.116;2023-04-07T07:28:43;99735.41;;;11.72;77.19
55576;BME280;41437;45.478;9.116;2023-04-07T07:31:44;99734.13;;;12.00;75.56
55576;BME280;41437;45.478;9.116;2023-04-07T07:34:47;99737.22;;;12.24;73.60
55576;BME280;41437;45.478;9.116;2023-04-07T07:37:49;99739.13;;;12.19;72.35
55576;BME280;41437;45.478;9.116;2023-04-07T07:40:51;99734.16;;;12.21;72.09
55576;BME280;41437;45.478;9.116;2023-04-07T07:43:52;99738.31;;;12.18;72.43
55576;BME280;41437;45.478;9.116;2023-04-07T07:46:54;99739.69;;;12.21;72.80
55576;BME280;41437;45.478;9.116;2023-04-07T07:49:57;99735.81;;;12.12;72.92
55576;BME280;41437;45.478;9.116;2023-04-07T07:52:59;99737.47;;;12.02;70.63
55576;BME280;41437;45.478;9.116;2023-04-07T07:56:00;99733.88;;;12.12;70.32
55576;BME280;41437;45.478;9.116;2023-04-07T07:59:05;99742.41;;;12.05;71.02
55576;BME280;41437;45.478;9.116;2023-04-07T08:02:06;99738.28;;;12.03;71.11
55576;BME280;41437;45.478;9.116;2023-04-07T08:05:09;99745.47;;;12.09;70.32
55576;BME280;41437;45.478;9.116;2023-04-07T08:08:11;99732.78;;;12.18;70.27
55576;BME280;41437;45.478;9.116;2023-04-07T08:11:13;99739.66;;;13.23;66.04
55576;BME280;41437;45.478;9.116;2023-04-07T08:14:15;99752.16;;;12.90;66.37
55576;BME280;41437;45.478;9.116;2023-04-07T08:17:19;99743.31;;;12.72;65.59
55576;BME280;41437;45.478;9.116;2023-04-07T08:20:24;99747.19;;;12.56;67.01
55576;BME280;41437;45.478;9.116;2023-04-07T08:23:25;99742.50;;;12.46;67.25
55576;BME280;41437;45.478;9.116;2023-04-07T08:26:29;99741.38;;;12.52;67.95
55576;BME280;41437;45.478;9.116;2023-04-07T08:29:30;99744.97;;;12.38;68.00
55576;BME280;41437;45.478;9.116;2023-04-07T08:32:36;99737.78;;;12.37;68.44
55576;BME280;41437;45.478;9.116;2023-04-07T08:35:40;99739.16;;;12.24;69.36
55576;BME280;41437;45.478;9.116;2023-04-07T08:38:44;99735.28;;;12.25;70.11
55576;BME280;41437;45.478;9.116;2023-04-07T08:41:46;99742.47;;;12.21;71.48
55576;BME280;41437;45.478;9.116;2023-04-07T08:44:52;99734.72;;;12.23;70.82
55576;BME280;41437;45.478;9.116;2023-04-07T08:47:58;99733.88;;;12.27;69.65
55576;BME280;41437;45.478;9.116;2023-04-07T08:51:07;99741.91;;;12.39;69.60
55576;BME280;41437;45.478;9.116;2023-04-07T08:54:10;99738.91;;;12.51;69.16
55576;BME280;41437;45.478;9.116;2023-04-07T08:57:13;99741.06;;;12.79;68.51
55576;BME280;41437;45.478;9.116;2023-04-07T09:00:18;99746.34;;;12.61;70.17
55576;BME280;41437;45.478;9.116;2023-04-07T09:03:19;99752.44;;;12.78;68.40
55576;BME280;41437;45.478;9.116;2023-04-07T09:06:23;99743.56;;;13.06;66.90
55576;BME280;41437;45.478;9.116;2023-04-07T09:09:26;99742.66;;;13.31;66.10
55576;BME280;41437;45.478;9.116;2023-04-07T09:12:36;99742.91;;;13.45;65.47
55576;BME280;41437;45.478;9.116;2023-04-07T09:15:38;99736.19;;;13.62;64.38
55576;BME280;41437;45.478;9.116;2023-04-07T09:18:40;99738.38;;;13.70;63.65
55576;BME280;41437;45.478;9.116;2023-04-07T09:21:51;99746.16;;;13.68;64.41
55576;BME280;41437;45.478;9.116;2023-04-07T09:24:52;99742.72;;;13.86;63.61
55576;BME280;41437;45.478;9.116;2023-04-07T09:27:56;99737.94;;;14.02;62.36
55576;BME280;41437;45.478;9.116;2023-04-07T09:30:57;99739.59;;;14.03;61.90
55576;BME280;41437;45.478;9.116;2023-04-07T09:33:59;99739.22;;;14.15;61.23
55576;BME280;41437;45.478;9.116;2023-04-07T09:37:04;99732.84;;;14.19;61.42
55576;BME280;41437;45.478;9.116;2023-04-07T09:40:08;99733.63;;;14.25;61.82
55576;BME280;41437;45.478;9.116;2023-04-07T09:43:14;99729.63;;;14.41;59.75
55576;BME280;41437;45.478;9.116;2023-04-07T09:46:17;99726.97;;;14.26;60.35
55576;BME280;41437;45.478;9.116;2023-04-07T09:49:19;99729.38;;;14.38;59.35
55576;BME280;41437;45.478;9.116;2023-04-07T09:52:24;99725.31;;;14.64;59.25
55576;BME280;41437;45.478;9.116;2023-04-07T09:55:27;99714.75;;;14.95;59.32
55576;BME280;41437;45.478;9.116;2023-04-07T09:58:29;99714.69;;;15.00;57.44
55576;BME280;41437;45.478;9.116;2023-04-07T10:01:31;99717.28;;;14.63;57.50
55576;BME280;41437;45.478;9.116;2023-04-07T10:04:32;99715.09;;;14.60;57.12
55576;BME280;41437;45.478;9.116;2023-04-07T10:07:36;99714.50;;;14.63;56.38
55576;BME280;41437;45.478;9.116;2023-04-07T10:10:40;99714.72;;;14.32;56.64
55576;BME280;41437;45.478;9.116;2023-04-07T10:13:42;99712.78;;;14.72;54.84
55576;BME280;41437;45.478;9.116;2023-04-07T10:16:47;99707.75;;;15.03;54.50
55576;BME280;41437;45.478;9.116;2023-04-07T10:19:51;99707.69;;;15.32;51.33
55576;BME280;41437;45.478;9.116;2023-04-07T10:22:57;99707.88;;;15.65;50.67
55576;BME280;41437;45.478;9.116;2023-04-07T10:26:05;99697.41;;;15.80;51.13
55576;BME280;41437;45.478;9.116;2023-04-07T10:29:10;99695.22;;;16.15;48.99
55576;BME280;41437;45.478;9.116;2023-04-07T10:32:15;99688.97;;;16.23;47.57
55576;BME280;41437;45.478;9.116;2023-04-07T10:35:19;99682.06;;;16.21;47.70
55576;BME280;41437;45.478;9.116;2023-04-07T10:38:23;99687.09;;;16.19;48.05
55576;BME280;41437;45.478;9.116;2023-04-07T10:41:32;99685.00;;;16.29;47.48
55576;BME280;41437;45.478;9.116;2023-04-07T10:44:48;99686.78;;;16.39;46.86
55576;BME280;41437;45.478;9.116;2023-04-07T10:48:09;99675.41;;;15.60;49.10
55576;BME280;41437;45.478;9.116;2023-04-07T10:51:16;99679.28;;;15.16;50.00
55576;BME280;41437;45.478;9.116;2023-04-07T10:54:20;99679.63;;;14.56;51.63
55576;BME280;41437;45.478;9.116;2023-04-07T10:57:22;99666.44;;;14.72;51.65
55576;BME280;41437;45.478;9.116;2023-04-07T11:00:24;99671.91;;;15.06;50.60
55576;BME280;41437;45.478;9.116;2023-04-07T11:03:31;99664.34;;;14.88;50.31
55576;BME280;41437;45.478;9.116;2023-04-07T11:06:33;99662.41;;;14.25;51.71
55576;BME280;41437;45.478;9.116;2023-04-07T11:09:36;99661.63;;;14.20;51.94
55576;BME280;41437;45.478;9.116;2023-04-07T11:12:38;99657.34;;;13.98;51.10
55576;BME280;41437;45.478;9.116;2023-04-07T11:15:40;99658.00;;;13.85;49.24
55576;BME280;41437;45.478;9.116;2023-04-07T11:18:42;99653.53;;;13.89;48.82
55576;BME280;41437;45.478;9.116;2023-04-07T11:21:45;99650.38;;;14.01;50.31
55576;BME280;41437;45.478;9.116;2023-04-07T11:24:48;99648.38;;;13.72;51.82
55576;BME280;41437;45.478;9.116;2023-04-07T11:27:49;99651.47;;;14.05;52.19
55576;BME280;41437;45.478;9.116;2023-04-07T11:30:52;99643.06;;;14.20;52.51
55576;BME280;41437;45.478;9.116;2023-04-07T11:33:55;99639.69;;;14.23;51.04
55576;BME280;41437;45.478;9.116;2023-04-07T11:36:58;99636.50;;;14.40;52.01
55576;BME280;41437;45.478;9.116;2023-04-07T11:40:31;99631.41;;;14.52;53.78
55576;BME280;41437;45.478;9.116;2023-04-07T11:43:33;99628.38;;;14.15;51.61
55576;BME280;41437;45.478;9.116;2023-04-07T11:46:51;99625.41;;;14.06;51.39
55576;BME280;41437;45.478;9.116;2023-04-07T11:49:54;99620.97;;;14.39;50.61
55576;BME280;41437;45.478;9.116;2023-04-07T11:52:56;99617.88;;;14.46;49.20
55576;BME280;41437;45.478;9.116;2023-04-07T11:56:00;99613.94;;;14.81;48.21
55576;BME280;41437;45.478;9.116;2023-04-07T11:59:02;99605.13;;;15.22;47.71
55576;BME280;41437;45.478;9.116;2023-04-07T12:02:03;99607.94;;;15.59;47.77
55576;BME280;41437;45.478;9.116;2023-04-07T12:05:06;99604.13;;;15.55;47.07
55576;BME280;41437;45.478;9.116;2023-04-07T12:08:09;99593.50;;;16.47;45.21
55576;BME280;41437;45.478;9.116;2023-04-07T12:11:12;99603.94;;;16.36;44.92
55576;BME280;41437;45.478;9.116;2023-04-07T12:14:13;99594.75;;;16.54;43.62
55576;BME280;41437;45.478;9.116;2023-04-07T12:17:19;99600.56;;;16.39;40.85
55576;BME280;41437;45.478;9.116;2023-04-07T12:20:21;99606.28;;;16.62;42.85
55576;BME280;41437;45.478;9.116;2023-04-07T12:23:22;99603.38;;;16.53;40.74
55576;BME280;41437;45.478;9.116;2023-04-07T12:26:25;99597.81;;;16.53;40.96
55576;BME280;41437;45.478;9.116;2023-04-07T12:29:27;99599.56;;;16.49;40.95
55576;BME280;41437;45.478;9.116;2023-04-07T12:32:32;99602.22;;;16.40;42.67
55576;BME280;41437;45.478;9.116;2023-04-07T12:35:34;99600.66;;;16.34;40.47
55576;BME280;41437;45.478;9.116;2023-04-07T12:38:37;99594.31;;;15.82;40.83
55576;BME280;41437;45.478;9.116;2023-04-07T12:41:40;99581.72;;;16.03;41.12
55576;BME280;41437;45.478;9.116;2023-04-07T12:44:44;99581.06;;;15.55;39.94
55576;BME280;41437;45.478;9.116;2023-04-07T12:47:45;99572.66;;;15.79;39.33
55576;BME280;41437;45.478;9.116;2023-04-07T12:50:47;99560.97;;;15.82;39.74
55576;BME280;41437;45.478;9.116;2023-04-07T12:53:49;99557.13;;;16.11;39.18
55576;BME280;41437;45.478;9.116;2023-04-07T12:56:52;99546.91;;;16.25;38.36
55576;BME280;41437;45.478;9.116;2023-04-07T12:59:56;99555.22;;;16.85;34.44
55576;BME280;41437;45.478;9.116;2023-04-07T13:02:57;99555.13;;;16.30;35.40
55576;BME280;41437;45.478;9.116;2023-04-07T13:05:59;99559.75;;;15.88;34.41
55576;BME280;41437;45.478;9.116;2023-04-07T13:09:14;99553.59;;;16.24;32.85
55576;BME280;41437;45.478;9.116;2023-04-07T13:12:17;99548.78;;;16.43;35.00
55576;BME280;41437;45.478;9.116;2023-04-07T13:15:18;99555.84;;;16.82;32.93
55576;BME280;41437;45.478;9.116;2023-04-07T13:18:20;99557.06;;;17.17;33.26
55576;BME280;41437;45.478;9.116;2023-04-07T13:21:25;99555.97;;;17.41;33.61
55576;BME280;41437;45.478;9.116;2023-04-07T13:24:27;99556.16;;;17.44;31.61
55576;BME280;41437;45.478;9.116;2023-04-07T13:27:31;99558.81;;;17.13;33.12
55576;BME280;41437;45.478;9.116;2023-04-07T13:30:34;99564.44;;;16.67;33.78
55576;BME280;41437;45.478;9.116;2023-04-07T13:33:36;99557.25;;;16.93;35.99
55576;BME280;41437;45.478;9.116;2023-04-07T13:36:40;99551.91;;;17.24;38.53
55576;BME280;41437;45.478;9.116;2023-04-07T13:39:42;99558.56;;;17.37;38.79
55576;BME280;41437;45.478;9.116;2023-04-07T13:42:45;99554.56;;;17.29;39.49
55576;BME280;41437;45.478;9.116;2023-04-07T13:45:47;99550.88;;;17.20;39.81
55576;BME280;41437;45.478;9.116;2023-04-07T13:48:48;99554.56;;;17.02;40.62
55576;BME280;41437;45.478;9.116;2023-04-07T13:51:50;99547.56;;;17.04;40.05
55576;BME280;41437;45.478;9.116;2023-04-07T13:54:51;99558.94;;;16.94;38.77
55576;BME280;41437;45.478;9.116;2023-04-07T13:57:55;99553.16;;;16.77;38.65
55576;BME280;41437;45.478;9.116;2023-04-07T14:00:57;99557.69;;;16.73;38.13
55576;BME280;41437;45.478;9.116;2023-04-07T14:03:58;99560.59;;;16.35;38.68
55576;BME280;41437;45.478;9.116;2023-04-07T14:07:01;99552.25;;;16.35;39.48
55576;BME280;41437;45.478;9.116;2023-04-07T14:10:03;99560.00;;;16.05;40.01
55576;BME280;41437;45.478;9.116;2023-04-07T14:13:06;99560.22;;;15.76;40.34
55576;BME280;41437;45.478;9.116;2023-04-07T14:16:07;99548.44;;;14.61;50.65
55576;BME280;41437;45.478;9.116;2023-04-07T14:19:09;99565.28;;;13.38;59.78
55576;BME280;41437;45.478;9.116;2023-04-07T14:22:12;99564.94;;;12.90;66.03
55576;BME280;41437;45.478;9.116;2023-04-07T14:25:13;99563.47;;;12.13;72.55
55576;BME280;41437;45.478;9.116;2023-04-07T14:28:17;99571.19;;;11.75;76.35
55576;BME280;41437;45.478;9.116;2023-04-07T14:31:18;99565.72;;;11.85;80.35
55576;BME280;41437;45.478;9.116;2023-04-07T14:34:20;99560.44;;;11.58;80.64
55576;BME280;41437;45.478;9.116;2023-04-07T14:37:21;99563.97;;;11.38;82.08
55576;BME280;41437;45.478;9.116;2023-04-07T14:40:25;99556.16;;;11.04;83.43
55576;BME280;41437;45.478;9.116;2023-04-07T14:43:28;99576.56;;;11.03;84.36
55576;BME280;41437;45.478;9.116;2023-04-07T14:46:29;99568.88;;;11.11;85.14
55576;BME280;41437;45.478;9.116;2023-04-07T14:49:31;99576.63;;;11.29;83.99
55576;BME280;41437;45.478;9.116;2023-04-07T14:52:32;99584.63;;;11.25;84.73
55576;BME280;41437;45.478;9.116;2023-04-07T14:55:36;99580.75;;;11.31;84.33
55576;BME280;41437;45.478;9.116;2023-04-07T14:58:39;99576.88;;;11.27;85.12
55576;BME280;41437;45.478;9.116;2023-04-07T15:01:40;99577.75;;;11.38;84.31
55576;BME280;41437;45.478;9.116;2023-04-07T15:04:42;99574.44;;;11.31;84.54
55576;BME280;41437;45.478;9.116;2023-04-07T15:07:43;99576.69;;;11.49;84.13
55576;BME280;41437;45.478;9.116;2023-04-07T15:10:47;99572.00;;;11.70;83.16
55576;BME280;41437;45.478;9.116;2023-04-07T15:13:51;99579.75;;;11.78;82.85
55576;BME280;41437;45.478;9.116;2023-04-07T15:16:52;99577.28;;;11.92;81.78
55576;BME280;41437;45.478;9.116;2023-04-07T15:19:54;99578.94;;;12.08;79.76
55576;BME280;41437;45.478;9.116;2023-04-07T15:22:55;99568.72;;;12.09;77.89
55576;BME280;41437;45.478;9.116;2023-04-07T15:25:59;99565.09;;;11.78;80.19
55576;BME280;41437;45.478;9.116;2023-04-07T15:29:02;99563.22;;;11.89;79.51
55576;BME280;41437;45.478;9.116;2023-04-07T15:32:04;99567.34;;;11.91;77.80
55576;BME280;41437;45.478;9.116;2023-04-07T15:35:07;99563.19;;;12.14;75.88
55576;BME280;41437;45.478;9.116;2023-04-07T15:38:09;99558.78;;;12.23;74.31
55576;BME280;41437;45.478;9.116;2023-04-07T15:41:13;99563.50;;;11.97;74.61
55576;BME280;41437;45.478;9.116;2023-04-07T15:44:17;99575.34;;;11.88;75.55
55576;BME280;41437;45.478;9.116;2023-04-07T15:47:19;99578.69;;;11.90;75.78
55576;BME280;41437;45.478;9.116;2023-04-07T15:50:20;99571.47;;;11.83;75.13
55576;BME280;41437;45.478;9.116;2023-04-07T15:53:22;99567.66;;;11.85;75.25
55576;BME280;41437;45.478;9.116;2023-04-07T15:56:24;99569.53;;;11.64;76.51
55576;BME280;41437;45.478;9.116;2023-04-07T15:59:27;99560.13;;;11.49;77.42
55576;BME280;41437;45.478;9.116;2023-04-07T16:02:30;99563.16;;;11.43;78.20
55576;BME280;41437;45.478;9.116;2023-04-07T16:05:33;99554.59;;;11.34;77.34
55576;BME280;41437;45.478;9.116;2023-04-07T16:08:35;99556.81;;;11.42;76.63
55576;BME280;41437;45.478;9.116;2023-04-07T16:11:37;99561.22;;;11.48;76.26
55576;BME280;41437;45.478;9.116;2023-04-07T16:14:40;99552.94;;;11.33;76.92